الصفحة الرئيسية
METAR-TAF:

METAR-TAF

مطار :

Mar del Plata, الأرجنتين

دائرة عرض: 37-56S, خط طول: 057-35W, ارتفاع: 18 متر

مراقبة الطقس الحالي

تاريخ ووقت الإصدار 19 دقيقة قبل الساعة 12:48UTC
ريح 8 عقدة من الجنوب
درجة الحرارة 17°درجة مئوية
الرطوبة 94%
ضغط 1018 hPa
الرؤية: 9000 متر
غيوم مفككة على ارتفاع 800 قدم
ملبد بالغيوم على ارتفاع 2100 قدم

METAR: SAZM 231248Z 18008KT 9000 BKN008 OVC021 17/16 Q1018

زمن: 10:07 (13:07 UTC)

توقعات

تاريخ ووقت الإصدار 2ساعات و 7 دقيقة قبل الساعة 11:00UTC
التوقعات صالحة من23 الساعة 12 UTC إلى 24 الساعة 12 UTC
ريح 15 عقدة من الجنوب
الرؤية: 8000 متر
ملبد بالغيوم على ارتفاع 800 قدم
رذاذ, غشاء
أصبح
من 23 الساعة 13 UTC إلى 23 الساعة 15 UTC
الرؤية 10 كم أو أكثر
غيوم متفرقة على ارتفاع 2000 قدم
غيوم متفرقة على ارتفاع 4000 قدم
أصبح
من 24 الساعة 02 UTC إلى 24 الساعة 04 UTC
ريح 10 عقدة من الشرق/الجنوب الشرقي
الرؤية: 7000 متر
غيوم مفككة على ارتفاع 700 قدم
غشاء

TAF: SAZM 231100Z 2312/2412 18015KT 8000 DZ BR OVC008 TX20/2318Z TN11/2410Z BECMG 2313/2315 9999 SCT020 SCT040 BECMG 2402/2404 11010KT 7000 BR BKN007

أرصاد الطقس والتوقعات من أكثر من 4000 مطار (تقارير الطقس للمطار METAR والتنبؤ بالطقس بالمطارTAF).

المحطات المتاحة هي النقط الصفراء والحمراء على الخريطة.

حرك المؤشر فوق النقطة لمعرفة اسم المحطة.

ثم انقر لمعرفة أرصاد وتوقعات الطقس.

لتغيير الخارطة: اضغط على الأزرار الخضراء مع رمز الصليب الأسود للتكبير. على الزر الأخضر مع شرطة للتصغير، أو على الأسهم الخضراء للخرائط المجاورة.


METAR-TAF: